Clatonia, NE (68328)

2:26 PM CDT on September 03, 2015 (GMT -0500)
APRSWXNET | | Change Station
CLOSE
Current Station
Personal Weather Station
Location: Plymouth, NE
Elevation: 1348 ft
Nearby Weather Stations

Elev 1348 ft 40.31 °N, 96.88 °W | Updated 31 minutes ago

Clear
Clear
92 °F
Feels Like 99 °F
N
4
Wind Variable Wind from North
Gusts 13.0 mph

Today
High -- | Low -- °F
--% Chance of Precip.
Yesterday
High -- | Low -- °F
Precip. -- in
6:56 AM 7:56 PM
Waning Gibbous, 67% visible
Pressure 29.84 in
Visibility 10.0 miles
Clouds Clear
Heat Index 99 °F
Dew Point 71 °F
Humidity 50%
Rainfall in
Snow Depth Not available.
UV 9 out of 12
Pollen 11.40 out of 12
Air Quality Not available.
Flu Activity Not available.
METAR KBIE 031915Z AUTO 18011KT 10SM CLR 33/19 A2984 RMK AO2 T03300194
Pressure 29.84 in
Visibility 10.0 miles
Clouds Clear
Heat Index 99 °F
Dew Point 71 °F
Humidity 50%
Rainfall in
Snow Depth Not available.
UV 9 out of 12
Pollen 11.40 out of 12
Air Quality Not available.
Flu Activity Not available.
METAR KBIE 031915Z AUTO 18011KT 10SM CLR 33/19 A2984 RMK AO2 T03300194

10-Day Weather Forecast

×

Almanac

Astronomy

Sep. 03, 2015 Rise Set
Actual Time
Civil Twilight
Nautical Twilight
Astronomical Twilight
Moon
Length of Visible Light
Length of Day
Tomorrow will be .
, % of the Moon is Illuminated

Today's Extremes

State Highs State Lows

Community

WunderPhotos

Upload Photos

1,852,014 photos uploaded!

WunderBlogs® & News

Nearby

Air Quality

  Air Quality AQ Index Pollutant
Not available.

Snow Depth

Station Depth Elevation

Earthquake Activity

City Distance Mag. Time & Date
Minimum magnitude displayed is 2.5.

Coastal Water Temperatures

Place Temperature

Stations

Nearby Weather Stations

Station Location Temp. Windchill Dew Point Humidity Wind Precip. Elev Updated Type